createdAt,value
2022-10-03T00:00:50.649Z,990.605
2022-10-03T00:02:50.913Z,990.629
2022-10-03T00:04:50.382Z,990.657
2022-10-03T00:06:50.628Z,990.674
2022-10-03T00:08:50.577Z,990.691
2022-10-03T00:10:50.500Z,990.705
2022-10-03T00:12:50.539Z,990.681
2022-10-03T00:14:50.547Z,990.707
2022-10-03T00:16:49.855Z,990.766
2022-10-03T00:18:50.052Z,990.759
2022-10-03T00:20:50.018Z,990.792
2022-10-03T00:22:50.238Z,990.792
2022-10-03T00:24:50.413Z,990.793
2022-10-03T00:26:49.857Z,990.860
2022-10-03T00:28:49.997Z,990.926
2022-10-03T00:30:50.219Z,990.931
2022-10-03T00:32:50.284Z,990.921
2022-10-03T00:34:50.775Z,990.958
2022-10-03T00:36:50.251Z,991.023
2022-10-03T00:38:50.469Z,991.059
2022-10-03T00:40:50.547Z,991.087
2022-10-03T00:42:50.399Z,991.144
2022-10-03T00:44:50.772Z,991.112
2022-10-03T00:46:50.455Z,991.109
2022-10-03T00:48:50.787Z,991.142
2022-10-03T00:50:49.930Z,991.185
2022-10-03T00:52:49.947Z,991.127
2022-10-03T00:54:49.990Z,991.101
2022-10-03T00:56:50.217Z,991.145
2022-10-03T00:58:50.148Z,991.162
2022-10-03T01:00:50.290Z,991.169
2022-10-03T01:02:50.575Z,991.212
2022-10-03T01:04:49.860Z,991.250
2022-10-03T01:06:50.272Z,991.284
2022-10-03T01:08:50.334Z,991.286
2022-10-03T01:10:50.508Z,991.281
2022-10-03T01:12:50.566Z,991.341
2022-10-03T01:14:50.512Z,991.338
2022-10-03T01:16:49.862Z,991.341
2022-10-03T01:18:50.753Z,991.353
2022-10-03T01:20:50.728Z,991.324
2022-10-03T01:22:50.792Z,991.332
2022-10-03T01:24:50.791Z,991.312
2022-10-03T01:26:50.150Z,991.366
2022-10-03T01:28:50.471Z,991.358
2022-10-03T01:30:50.699Z,991.343
2022-10-03T01:32:50.764Z,991.338
2022-10-03T01:34:50.290Z,991.358
2022-10-03T01:36:50.641Z,991.332
2022-10-03T01:38:50.599Z,991.337
2022-10-03T01:40:50.613Z,991.317
2022-10-03T01:42:50.679Z,991.377
2022-10-03T01:44:50.586Z,991.357
2022-10-03T01:46:49.982Z,991.362
2022-10-03T01:48:49.982Z,991.337
2022-10-03T01:50:49.858Z,991.381
2022-10-03T01:52:49.976Z,991.344
2022-10-03T01:54:49.880Z,991.372
2022-10-03T01:56:50.313Z,991.392
2022-10-03T01:58:50.266Z,991.355
2022-10-03T02:00:50.468Z,991.357
2022-10-03T02:02:49.841Z,991.379
2022-10-03T02:04:50.428Z,991.380
2022-10-03T02:06:49.816Z,991.338
2022-10-03T02:08:50.176Z,991.319
2022-10-03T02:10:50.173Z,991.368
2022-10-03T02:12:50.227Z,991.380
2022-10-03T02:14:50.182Z,991.400
2022-10-03T02:16:50.464Z,991.437
2022-10-03T02:18:50.622Z,991.437
2022-10-03T02:20:50.529Z,991.449
2022-10-03T02:22:50.524Z,991.448
2022-10-03T02:24:50.482Z,991.496
2022-10-03T02:26:50.651Z,991.505
2022-10-03T02:28:50.681Z,991.573
2022-10-03T02:30:50.584Z,991.594
2022-10-03T02:32:50.775Z,991.646
2022-10-03T02:34:50.054Z,991.622
2022-10-03T02:36:50.367Z,991.662
2022-10-03T02:38:50.359Z,991.680
2022-10-03T02:40:50.291Z,991.688
2022-10-03T02:42:50.185Z,991.712
2022-10-03T02:44:50.162Z,991.707
2022-10-03T02:46:50.072Z,991.777
2022-10-03T02:48:50.162Z,991.808
2022-10-03T02:50:50.040Z,991.831
2022-10-03T02:52:50.119Z,991.827
2022-10-03T02:54:50.125Z,991.862
2022-10-03T02:56:50.699Z,991.901
2022-10-03T02:58:50.705Z,991.951
2022-10-03T03:00:49.958Z,991.980
2022-10-03T03:02:50.331Z,991.997
2022-10-03T03:04:49.927Z,992.047
2022-10-03T03:06:50.210Z,992.071
2022-10-03T03:08:50.697Z,992.070
2022-10-03T03:10:50.501Z,992.044
2022-10-03T03:12:50.702Z,992.080
2022-10-03T03:14:50.625Z,992.052
2022-10-03T03:16:50.074Z,992.101
2022-10-03T03:18:50.048Z,992.136
2022-10-03T03:20:50.145Z,992.129
2022-10-03T03:22:50.298Z,992.128
2022-10-03T03:24:50.323Z,992.147
2022-10-03T03:26:50.510Z,992.182
2022-10-03T03:28:56.078Z,992.170
2022-10-03T03:30:50.351Z,992.228
2022-10-03T03:32:50.250Z,992.223
2022-10-03T03:34:50.003Z,992.269
2022-10-03T03:36:50.292Z,992.305
2022-10-03T03:38:50.154Z,992.315
2022-10-03T03:40:50.048Z,992.310
2022-10-03T03:42:49.930Z,992.324
2022-10-03T03:44:49.884Z,992.398
2022-10-03T03:46:50.191Z,992.381
2022-10-03T03:48:50.117Z,992.400
2022-10-03T03:50:50.234Z,992.418
2022-10-03T03:52:50.191Z,992.375
2022-10-03T03:54:50.071Z,992.378
2022-10-03T03:56:50.191Z,992.441
2022-10-03T03:58:50.127Z,992.427
2022-10-03T04:00:50.439Z,992.435
2022-10-03T04:02:50.485Z,992.435
2022-10-03T04:04:49.885Z,992.415
2022-10-03T04:06:50.077Z,992.409
2022-10-03T04:08:49.948Z,992.402
2022-10-03T04:10:50.125Z,992.410
2022-10-03T04:12:50.033Z,992.420
2022-10-03T04:14:50.176Z,992.443
2022-10-03T04:16:50.717Z,992.462
2022-10-03T04:18:49.861Z,992.431
2022-10-03T04:20:49.876Z,992.506
2022-10-03T04:22:49.917Z,992.526
2022-10-03T04:24:49.814Z,992.526
2022-10-03T04:26:50.079Z,992.515
2022-10-03T04:28:49.898Z,992.529
2022-10-03T04:30:49.982Z,992.509
2022-10-03T04:32:49.980Z,992.470
2022-10-03T04:34:50.296Z,992.461
2022-10-03T04:36:50.414Z,992.475
2022-10-03T04:38:50.627Z,992.457
2022-10-03T04:40:50.731Z,992.449
2022-10-03T04:42:50.540Z,992.492
2022-10-03T04:44:50.622Z,992.498
2022-10-03T04:46:50.005Z,992.521
2022-10-03T04:48:50.066Z,992.503
2022-10-03T04:50:50.016Z,992.503
2022-10-03T04:52:50.068Z,992.511
2022-10-03T04:54:50.093Z,992.505
2022-10-03T04:56:50.408Z,992.480
2022-10-03T04:58:50.404Z,992.473
2022-10-03T05:00:50.645Z,992.500
2022-10-03T05:02:50.622Z,992.530
2022-10-03T05:04:55.907Z,992.530
2022-10-03T05:06:50.222Z,992.520
2022-10-03T05:08:50.317Z,992.522
2022-10-03T05:10:50.286Z,992.533
2022-10-03T05:12:50.229Z,992.533
2022-10-03T05:14:50.313Z,992.557
2022-10-03T05:16:50.678Z,992.539
2022-10-03T05:18:49.998Z,992.552
2022-10-03T05:20:49.912Z,992.577
2022-10-03T05:22:49.936Z,992.602
2022-10-03T05:24:50.027Z,992.622
2022-10-03T05:26:50.286Z,992.629
2022-10-03T05:28:50.381Z,992.631
2022-10-03T05:30:50.276Z,992.717
2022-10-03T05:32:50.429Z,992.729
2022-10-03T05:34:49.863Z,992.712
2022-10-03T05:36:50.171Z,992.740
2022-10-03T05:38:50.077Z,992.774
2022-10-03T05:40:50.056Z,992.780
2022-10-03T05:42:49.946Z,992.818
2022-10-03T05:44:49.865Z,992.810
2022-10-03T05:46:50.242Z,992.853
2022-10-03T05:48:50.368Z,992.852
2022-10-03T05:50:50.277Z,992.896
2022-10-03T05:52:50.265Z,992.904
2022-10-03T05:54:50.484Z,992.937
2022-10-03T05:56:49.846Z,992.969
2022-10-03T05:58:49.899Z,993.011
2022-10-03T06:00:49.905Z,993.048
2022-10-03T06:02:50.394Z,993.073
2022-10-03T06:04:50.371Z,993.058
2022-10-03T06:06:49.840Z,993.108
2022-10-03T06:08:50.121Z,993.114
2022-10-03T06:10:50.052Z,993.114
2022-10-03T06:12:50.146Z,993.156
2022-10-03T06:14:50.128Z,993.153
2022-10-03T06:16:50.044Z,993.161
2022-10-03T06:18:50.133Z,993.192
2022-10-03T06:20:49.936Z,993.154
2022-10-03T06:22:50.093Z,993.151
2022-10-03T06:24:49.947Z,993.143
2022-10-03T06:26:50.271Z,993.166
2022-10-03T06:28:50.252Z,993.166
2022-10-03T06:30:50.380Z,993.225
2022-10-03T06:32:49.821Z,993.313
2022-10-03T06:34:50.411Z,993.252
2022-10-03T06:36:50.525Z,993.270
2022-10-03T06:38:50.660Z,993.259
2022-10-03T06:40:50.602Z,993.314
2022-10-03T06:42:50.130Z,993.305
2022-10-03T06:44:50.475Z,993.316
2022-10-03T06:46:49.837Z,993.291
2022-10-03T06:48:49.993Z,993.316
2022-10-03T06:50:49.850Z,993.342
2022-10-03T06:52:49.964Z,993.327
2022-10-03T06:54:49.903Z,993.332
2022-10-03T06:56:50.637Z,993.309
2022-10-03T06:58:49.961Z,993.338
2022-10-03T07:00:49.943Z,993.375
2022-10-03T07:02:50.408Z,993.363
2022-10-03T07:04:50.126Z,993.441
2022-10-03T07:06:50.829Z,993.479
2022-10-03T07:08:49.941Z,993.524
2022-10-03T07:10:50.766Z,993.495
2022-10-03T07:12:49.820Z,993.386
2022-10-03T07:14:50.061Z,993.346
2022-10-03T07:16:50.451Z,993.354
2022-10-03T07:18:50.708Z,993.318
2022-10-03T07:20:50.484Z,993.318
2022-10-03T07:22:50.613Z,993.251
2022-10-03T07:24:49.964Z,993.293
2022-10-03T07:26:50.345Z,993.380
2022-10-03T07:28:50.472Z,993.430
2022-10-03T07:30:50.602Z,993.459
2022-10-03T07:32:50.635Z,993.473
2022-10-03T07:34:49.997Z,993.506
2022-10-03T07:36:50.379Z,993.578
2022-10-03T07:38:50.536Z,993.578
2022-10-03T07:40:50.584Z,993.710
2022-10-03T07:42:50.391Z,993.685
2022-10-03T07:44:50.451Z,993.701
2022-10-03T07:46:50.544Z,993.755
2022-10-03T07:48:50.462Z,993.783
2022-10-03T07:50:50.409Z,993.789
2022-10-03T07:52:50.593Z,993.825
2022-10-03T07:54:50.693Z,993.883
2022-10-03T07:56:49.880Z,993.888
2022-10-03T07:58:50.038Z,993.894
2022-10-03T08:00:50.005Z,993.906
2022-10-03T08:02:50.204Z,993.919
2022-10-03T08:04:49.959Z,993.899
2022-10-03T08:06:50.314Z,993.926
2022-10-03T08:08:50.527Z,993.902
2022-10-03T08:10:50.612Z,993.912
2022-10-03T08:12:50.504Z,993.981
2022-10-03T08:14:50.719Z,993.948
2022-10-03T08:16:50.068Z,993.896
2022-10-03T08:18:50.121Z,993.866
2022-10-03T08:20:49.983Z,993.951
2022-10-03T08:22:50.193Z,993.935
2022-10-03T08:24:50.359Z,993.949
2022-10-03T08:26:50.005Z,993.943
2022-10-03T08:28:50.195Z,993.967
2022-10-03T08:30:50.304Z,993.989
2022-10-03T08:32:50.534Z,994.040
2022-10-03T08:34:50.161Z,994.024
2022-10-03T08:36:50.416Z,994.114
2022-10-03T08:38:50.319Z,994.119
2022-10-03T08:40:50.506Z,994.084
2022-10-03T08:42:50.155Z,994.065
2022-10-03T08:44:50.219Z,994.061
2022-10-03T08:46:50.863Z,994.081
2022-10-03T08:48:49.907Z,994.113
2022-10-03T08:50:50.069Z,994.101
2022-10-03T08:52:50.070Z,994.173
2022-10-03T08:54:50.171Z,994.143
2022-10-03T08:56:50.527Z,994.117
2022-10-03T08:58:50.660Z,994.110
2022-10-03T09:00:50.665Z,994.117
2022-10-03T09:03:32.427Z,994.135
2022-10-03T09:04:50.600Z,994.115
2022-10-03T09:07:17.362Z,994.104
2022-10-03T09:08:50.759Z,994.093
2022-10-03T09:10:50.759Z,994.096
2022-10-03T09:12:49.819Z,994.043
2022-10-03T09:14:49.877Z,994.052
2022-10-03T09:16:50.151Z,994.031
2022-10-03T09:18:50.193Z,994.079
2022-10-03T09:20:50.110Z,994.031
2022-10-03T09:22:50.331Z,993.994
2022-10-03T09:24:50.234Z,993.985
2022-10-03T09:26:50.385Z,993.985
2022-10-03T09:28:50.454Z,994.067
2022-10-03T09:30:50.389Z,994.129
2022-10-03T09:32:50.439Z,994.103
2022-10-03T09:34:50.234Z,994.118
2022-10-03T09:36:50.587Z,994.085
2022-10-03T09:38:50.634Z,994.133
2022-10-03T09:40:53.847Z,994.121
2022-10-03T09:42:49.952Z,994.099
2022-10-03T09:44:49.923Z,994.084
2022-10-03T09:46:50.374Z,994.102
2022-10-03T09:48:50.629Z,994.066
2022-10-03T09:50:50.496Z,994.071
2022-10-03T09:52:50.766Z,994.082
2022-10-03T09:54:50.676Z,994.095
2022-10-03T09:56:49.902Z,993.981
2022-10-03T09:58:50.561Z,993.954
2022-10-03T10:00:50.599Z,994.019
2022-10-03T10:02:49.829Z,994.039
2022-10-03T10:04:56.640Z,994.050
2022-10-03T10:06:50.136Z,994.011
2022-10-03T10:08:50.269Z,994.038
2022-10-03T10:10:50.238Z,993.957
2022-10-03T10:12:50.182Z,993.920
2022-10-03T10:14:50.070Z,993.959
2022-10-03T10:16:52.772Z,993.995
2022-10-03T10:18:50.477Z,993.993
2022-10-03T10:20:50.322Z,993.939
2022-10-03T10:22:50.562Z,993.939
2022-10-03T10:24:49.838Z,993.986
2022-10-03T10:26:50.282Z,993.943
2022-10-03T10:28:50.215Z,993.966
2022-10-03T10:30:50.134Z,993.964
2022-10-03T10:32:50.239Z,993.930
2022-10-03T10:34:49.892Z,993.963
2022-10-03T10:36:50.327Z,993.942
2022-10-03T10:38:50.465Z,993.991
2022-10-03T10:40:50.223Z,993.966
2022-10-03T10:42:50.327Z,993.995
2022-10-03T10:44:50.156Z,994.011
2022-10-03T10:46:50.826Z,993.980
2022-10-03T10:48:50.067Z,993.975
2022-10-03T10:50:50.696Z,993.978
2022-10-03T10:52:50.745Z,993.990
2022-10-03T10:54:50.759Z,993.981
2022-10-03T10:56:50.421Z,993.914
2022-10-03T10:58:50.476Z,993.936
2022-10-03T11:00:50.272Z,993.900
2022-10-03T11:02:50.602Z,993.942
2022-10-03T11:04:50.276Z,993.904
2022-10-03T11:06:49.797Z,993.904
2022-10-03T11:08:49.934Z,993.937
2022-10-03T11:10:50.753Z,993.917
2022-10-03T11:12:50.715Z,993.952
2022-10-03T11:14:50.482Z,993.865
2022-10-03T11:16:50.860Z,993.884
2022-10-03T11:18:49.952Z,993.816
2022-10-03T11:20:49.944Z,993.830
2022-10-03T11:22:49.839Z,993.836
2022-10-03T11:24:50.668Z,993.860
2022-10-03T11:26:50.080Z,993.894
2022-10-03T11:28:50.235Z,993.876
2022-10-03T11:30:50.572Z,993.916
2022-10-03T11:32:50.630Z,993.936
2022-10-03T11:34:49.956Z,993.890
2022-10-03T11:36:50.462Z,993.880
2022-10-03T11:38:50.682Z,993.883
2022-10-03T11:40:50.672Z,993.890
2022-10-03T11:42:50.588Z,993.911
2022-10-03T11:44:50.622Z,993.936
2022-10-03T11:46:50.130Z,993.881
2022-10-03T11:48:50.271Z,993.829
2022-10-03T11:50:50.245Z,993.868
2022-10-03T11:52:50.282Z,993.859
2022-10-03T11:54:50.233Z,993.799
2022-10-03T11:56:49.855Z,993.783
2022-10-03T11:58:50.068Z,993.791
2022-10-03T12:00:49.981Z,993.795
2022-10-03T12:02:50.537Z,993.803
2022-10-03T12:04:50.350Z,993.695
2022-10-03T12:06:50.519Z,993.695
2022-10-03T12:08:50.645Z,993.686
2022-10-03T12:10:50.688Z,993.700
2022-10-03T12:12:50.602Z,993.651
2022-10-03T12:14:50.720Z,993.670
2022-10-03T12:16:50.384Z,993.625
2022-10-03T12:18:50.664Z,993.637
2022-10-03T12:20:50.532Z,993.658
2022-10-03T12:22:50.613Z,993.687
2022-10-03T12:24:50.466Z,993.624
2022-10-03T12:26:49.952Z,993.669
2022-10-03T12:28:50.042Z,993.660
2022-10-03T12:30:49.896Z,993.649
2022-10-03T12:32:50.116Z,993.712
2022-10-03T12:34:49.938Z,993.677
2022-10-03T12:36:50.116Z,993.749
2022-10-03T12:38:51.558Z,993.750
2022-10-03T12:40:50.639Z,993.679
2022-10-03T12:42:50.718Z,993.683
2022-10-03T12:44:50.618Z,993.623
2022-10-03T12:46:50.035Z,993.624
2022-10-03T12:48:50.234Z,993.593
2022-10-03T12:50:50.119Z,993.518
2022-10-03T12:52:50.197Z,993.474
2022-10-03T12:54:50.084Z,993.525
2022-10-03T12:56:50.664Z,993.504
2022-10-03T12:58:49.921Z,993.508
2022-10-03T13:00:50.015Z,993.489
2022-10-03T13:02:50.553Z,993.504
2022-10-03T13:04:50.262Z,993.473
2022-10-03T13:07:04.871Z,993.439
2022-10-03T13:08:50.069Z,993.427
2022-10-03T13:10:49.985Z,993.391
2022-10-03T13:12:50.118Z,993.325
2022-10-03T13:14:50.163Z,993.304
2022-10-03T13:16:50.487Z,993.323
2022-10-03T13:18:50.595Z,993.319
2022-10-03T13:20:50.710Z,993.284
2022-10-03T13:22:49.804Z,993.364
2022-10-03T13:24:50.626Z,993.316
2022-10-03T13:26:50.785Z,993.370
2022-10-03T13:28:50.687Z,993.279
2022-10-03T13:30:51.160Z,993.276
2022-10-03T13:32:50.422Z,993.254
2022-10-03T13:34:49.992Z,993.217
2022-10-03T13:36:50.468Z,993.207
2022-10-03T13:38:50.213Z,993.254
2022-10-03T13:40:50.281Z,993.264
2022-10-03T13:42:50.241Z,993.231
2022-10-03T13:44:50.350Z,993.208
2022-10-03T13:46:50.804Z,993.186
2022-10-03T13:48:50.690Z,993.129
2022-10-03T13:50:50.804Z,993.119
2022-10-03T13:52:49.831Z,993.159
2022-10-03T13:54:50.768Z,993.138
2022-10-03T13:56:50.037Z,993.148
2022-10-03T13:58:50.019Z,993.198
2022-10-03T14:00:50.255Z,993.233
2022-10-03T14:02:50.511Z,993.143
2022-10-03T14:04:50.385Z,993.074
2022-10-03T14:06:50.711Z,993.106
2022-10-03T14:08:50.730Z,993.091
2022-10-03T14:10:50.752Z,993.090
2022-10-03T14:12:56.658Z,993.046
2022-10-03T14:14:50.732Z,993.063
2022-10-03T14:16:50.315Z,993.073
2022-10-03T14:18:50.167Z,993.027
2022-10-03T14:20:50.086Z,993.021
2022-10-03T14:22:49.868Z,992.988
2022-10-03T14:24:49.799Z,993.113
2022-10-03T14:26:49.921Z,993.103
2022-10-03T14:28:49.878Z,993.103
2022-10-03T14:31:07.458Z,993.081
2022-10-03T14:32:50.454Z,993.115
2022-10-03T14:34:50.028Z,993.104
2022-10-03T14:36:50.210Z,993.104
2022-10-03T14:38:50.117Z,993.136
2022-10-03T14:40:50.169Z,993.069
2022-10-03T14:42:49.945Z,993.101
2022-10-03T14:44:49.916Z,993.077
2022-10-03T14:46:50.188Z,993.116
2022-10-03T14:48:50.349Z,993.087
2022-10-03T14:50:50.157Z,993.075
2022-10-03T14:52:50.023Z,993.069
2022-10-03T14:54:50.130Z,993.093
2022-10-03T14:56:50.314Z,993.131
2022-10-03T14:58:50.396Z,993.131
2022-10-03T15:00:50.274Z,993.077
2022-10-03T15:02:50.785Z,993.097
2022-10-03T15:04:50.707Z,993.110
2022-10-03T15:06:50.088Z,993.069
2022-10-03T15:08:50.105Z,993.050
2022-10-03T15:10:50.114Z,993.063
2022-10-03T15:12:50.019Z,993.029
2022-10-03T15:14:50.025Z,993.035
2022-10-03T15:16:50.314Z,993.071
2022-10-03T15:18:50.415Z,992.994
2022-10-03T15:20:50.426Z,992.989
2022-10-03T15:22:50.411Z,993.018
2022-10-03T15:24:50.411Z,993.003
2022-10-03T15:26:50.475Z,993.003
2022-10-03T15:28:50.375Z,993.017
2022-10-03T15:30:50.308Z,992.971
2022-10-03T15:32:50.594Z,992.992
2022-10-03T15:34:49.908Z,992.975
2022-10-03T15:36:50.244Z,992.974
2022-10-03T15:38:50.142Z,992.964
2022-10-03T15:40:50.118Z,992.970
2022-10-03T15:42:49.959Z,992.971
2022-10-03T15:44:50.144Z,992.949
2022-10-03T15:46:50.552Z,992.978
2022-10-03T15:48:50.686Z,993.005
2022-10-03T15:50:50.784Z,993.008
2022-10-03T15:52:50.832Z,992.985
2022-10-03T15:54:50.766Z,993.052
2022-10-03T15:56:50.113Z,993.078
2022-10-03T15:58:50.276Z,993.037
2022-10-03T16:00:50.261Z,993.023
2022-10-03T16:02:50.432Z,992.914
2022-10-03T16:04:49.899Z,992.989
2022-10-03T16:06:50.287Z,992.979
2022-10-03T16:08:50.343Z,993.023
2022-10-03T16:10:50.261Z,992.992
2022-10-03T16:12:50.273Z,992.970
2022-10-03T16:14:50.143Z,993.012
2022-10-03T16:16:50.259Z,993.027
2022-10-03T16:18:50.271Z,992.995
2022-10-03T16:20:50.621Z,993.013
2022-10-03T16:22:50.511Z,993.022
2022-10-03T16:24:50.675Z,993.062
2022-10-03T16:26:50.071Z,993.053
2022-10-03T16:28:49.950Z,993.006
2022-10-03T16:30:49.942Z,993.046
2022-10-03T16:32:49.882Z,992.981
2022-10-03T16:34:50.549Z,993.045
2022-10-03T16:36:50.703Z,993.042
2022-10-03T16:38:50.622Z,993.026
2022-10-03T16:40:50.718Z,993.015
2022-10-03T16:42:50.683Z,993.008
2022-10-03T16:44:49.766Z,993.008
2022-10-03T16:46:50.217Z,993.054
2022-10-03T16:48:50.279Z,993.021
2022-10-03T16:50:50.115Z,993.036
2022-10-03T16:52:50.053Z,993.088
2022-10-03T16:54:50.734Z,993.112
2022-10-03T16:56:50.125Z,993.106
2022-10-03T16:58:50.219Z,993.062
2022-10-03T17:01:26.227Z,993.031
2022-10-03T17:02:50.329Z,993.064
2022-10-03T17:04:50.095Z,993.065
2022-10-03T17:06:50.359Z,993.069
2022-10-03T17:08:50.494Z,993.069
2022-10-03T17:10:50.447Z,993.112
2022-10-03T17:12:50.557Z,993.125
2022-10-03T17:14:50.604Z,993.075
2022-10-03T17:16:49.989Z,993.116
2022-10-03T17:18:50.136Z,993.055
2022-10-03T17:20:50.180Z,993.080
2022-10-03T17:22:50.162Z,993.092
2022-10-03T17:24:50.115Z,993.094
2022-10-03T17:26:50.404Z,993.106
2022-10-03T17:28:50.303Z,993.149
2022-10-03T17:30:50.541Z,993.122
2022-10-03T17:32:53.807Z,993.087
2022-10-03T17:34:50.370Z,993.099
2022-10-03T17:36:50.694Z,993.074
2022-10-03T17:38:50.904Z,993.077
2022-10-03T17:40:49.974Z,993.081
2022-10-03T17:42:49.975Z,993.077
2022-10-03T17:44:50.101Z,993.091
2022-10-03T17:46:50.322Z,993.133
2022-10-03T17:48:50.430Z,993.100
2022-10-03T17:50:50.540Z,993.077
2022-10-03T17:52:50.666Z,993.033
2022-10-03T17:54:50.741Z,993.031
2022-10-03T17:56:49.867Z,993.095
2022-10-03T17:58:50.100Z,993.041
2022-10-03T18:00:50.601Z,993.039
2022-10-03T18:02:50.656Z,993.066
2022-10-03T18:04:50.169Z,993.061
2022-10-03T18:06:50.395Z,993.088
2022-10-03T18:08:50.394Z,993.084
2022-10-03T18:10:50.332Z,993.046
2022-10-03T18:12:50.257Z,993.052
2022-10-03T18:14:50.434Z,993.022
2022-10-03T18:16:50.676Z,993.056
2022-10-03T18:18:50.071Z,993.075
2022-10-03T18:20:50.664Z,993.067
2022-10-03T18:22:50.716Z,993.032
2022-10-03T18:24:50.668Z,993.002
2022-10-03T18:26:50.078Z,992.923
2022-10-03T18:28:50.359Z,992.954
2022-10-03T18:30:50.536Z,992.963
2022-10-03T18:32:50.483Z,992.969
2022-10-03T18:34:50.137Z,992.896
2022-10-03T18:36:50.707Z,992.878
2022-10-03T18:38:50.527Z,992.851
2022-10-03T18:40:50.468Z,992.870
2022-10-03T18:42:50.452Z,992.913
2022-10-03T18:44:50.689Z,992.873
2022-10-03T18:46:50.016Z,992.893
2022-10-03T18:49:31.688Z,992.876
2022-10-03T18:50:50.198Z,992.892
2022-10-03T18:52:50.193Z,992.909
2022-10-03T18:54:50.294Z,992.924
2022-10-03T18:56:50.511Z,992.918
2022-10-03T18:58:50.417Z,992.955
2022-10-03T19:00:50.731Z,992.953
2022-10-03T19:02:50.577Z,992.909
2022-10-03T19:04:50.112Z,992.907
2022-10-03T19:06:50.254Z,992.901
2022-10-03T19:08:50.252Z,992.898
2022-10-03T19:10:50.328Z,992.946
2022-10-03T19:12:50.466Z,992.972
2022-10-03T19:14:50.401Z,992.999
2022-10-03T19:16:50.830Z,992.958
2022-10-03T19:18:49.948Z,992.997
2022-10-03T19:20:49.991Z,992.987
2022-10-03T19:22:49.972Z,992.980
2022-10-03T19:24:59.557Z,992.961
2022-10-03T19:26:49.876Z,992.945
2022-10-03T19:28:49.959Z,992.925
2022-10-03T19:30:50.033Z,992.944
2022-10-03T19:32:49.983Z,992.974
2022-10-03T19:34:50.514Z,992.989
2022-10-03T19:36:49.817Z,992.956
2022-10-03T19:38:49.917Z,992.982
2022-10-03T19:40:50.679Z,992.963
2022-10-03T19:42:49.791Z,992.992
2022-10-03T19:44:50.621Z,993.018
2022-10-03T19:46:50.116Z,992.985
2022-10-03T19:48:50.100Z,992.984
2022-10-03T19:50:50.231Z,992.982
2022-10-03T19:52:50.269Z,992.982
2022-10-03T19:54:50.358Z,993.052
2022-10-03T19:56:49.904Z,993.051
2022-10-03T19:58:50.678Z,993.087
2022-10-03T20:00:50.980Z,993.061
2022-10-03T20:02:49.899Z,993.023
2022-10-03T20:04:50.145Z,993.025
2022-10-03T20:06:50.414Z,992.975
2022-10-03T20:08:50.416Z,992.982
2022-10-03T20:10:50.447Z,992.936
2022-10-03T20:12:50.521Z,992.977
2022-10-03T20:14:50.658Z,992.944
2022-10-03T20:16:50.234Z,992.904
2022-10-03T20:18:50.439Z,992.891
2022-10-03T20:20:50.317Z,992.888
2022-10-03T20:22:50.390Z,992.874
2022-10-03T20:24:50.435Z,992.904
2022-10-03T20:26:49.951Z,992.928
2022-10-03T20:28:49.955Z,992.981
2022-10-03T20:30:50.075Z,992.954
2022-10-03T20:32:50.123Z,992.979
2022-10-03T20:34:50.793Z,993.014
2022-10-03T20:36:50.131Z,993.067
2022-10-03T20:38:50.401Z,993.014
2022-10-03T20:40:50.334Z,993.077
2022-10-03T20:42:50.342Z,993.052
2022-10-03T20:44:50.247Z,993.054
2022-10-03T20:46:50.778Z,993.021
2022-10-03T20:48:50.747Z,993.018
2022-10-03T20:50:50.733Z,992.998
2022-10-03T20:52:50.005Z,993.008
2022-10-03T20:54:50.799Z,992.971
2022-10-03T20:56:50.315Z,992.958
2022-10-03T20:58:51.462Z,992.926
2022-10-03T21:00:50.834Z,992.871
2022-10-03T21:02:50.067Z,992.789
2022-10-03T21:04:50.811Z,992.742
2022-10-03T21:06:50.521Z,992.719
2022-10-03T21:08:50.414Z,992.695
2022-10-03T21:10:50.440Z,992.695
2022-10-03T21:12:50.394Z,992.663
2022-10-03T21:14:50.637Z,992.671
2022-10-03T21:16:50.037Z,992.631
2022-10-03T21:18:49.991Z,992.655
2022-10-03T21:20:50.010Z,992.658
2022-10-03T21:22:50.016Z,992.663
2022-10-03T21:24:49.953Z,992.689
2022-10-03T21:26:50.028Z,992.766
2022-10-03T21:28:49.933Z,992.805
2022-10-03T21:30:49.883Z,992.761
2022-10-03T21:32:50.068Z,992.763
2022-10-03T21:34:49.812Z,992.778
2022-10-03T21:36:50.095Z,992.738
2022-10-03T21:38:49.977Z,992.788
2022-10-03T21:40:50.138Z,992.753
2022-10-03T21:42:50.045Z,992.757
2022-10-03T21:44:50.029Z,992.643
2022-10-03T21:46:50.235Z,992.665
2022-10-03T21:48:50.093Z,992.641
2022-10-03T21:50:49.918Z,992.641
2022-10-03T21:52:49.806Z,992.656
2022-10-03T21:54:49.893Z,992.596
2022-10-03T21:56:50.210Z,992.617
2022-10-03T21:58:50.398Z,992.579
2022-10-03T22:00:50.538Z,992.641
2022-10-03T22:02:50.676Z,992.679
2022-10-03T22:04:50.031Z,992.718
2022-10-03T22:06:50.340Z,992.686
2022-10-03T22:08:50.487Z,992.696
2022-10-03T22:10:50.397Z,992.699
2022-10-03T22:12:50.427Z,992.681
2022-10-03T22:14:50.345Z,992.665
2022-10-03T22:16:50.492Z,992.657
2022-10-03T22:18:50.306Z,992.646
2022-10-03T22:20:50.496Z,992.672
2022-10-03T22:22:50.545Z,992.616
2022-10-03T22:24:50.744Z,992.544
2022-10-03T22:26:49.843Z,992.506
2022-10-03T22:28:50.771Z,992.530
2022-10-03T22:30:50.817Z,992.616
2022-10-03T22:32:50.639Z,992.612
2022-10-03T22:34:50.069Z,992.628
2022-10-03T22:36:50.141Z,992.626
2022-10-03T22:38:50.246Z,992.581
2022-10-03T22:40:50.465Z,992.603
2022-10-03T22:42:50.499Z,992.590
2022-10-03T22:44:50.502Z,992.550
2022-10-03T22:46:50.762Z,992.455
2022-10-03T22:48:49.932Z,992.455
2022-10-03T22:50:50.110Z,992.332
2022-10-03T22:52:50.154Z,992.319
2022-10-03T22:54:50.215Z,992.349
2022-10-03T22:56:50.610Z,992.330
2022-10-03T22:58:50.692Z,992.292
2022-10-03T23:00:50.553Z,992.268
2022-10-03T23:02:50.891Z,992.274
2022-10-03T23:04:50.698Z,992.224
2022-10-03T23:06:49.925Z,992.201
2022-10-03T23:08:49.969Z,992.185
2022-10-03T23:10:50.089Z,992.140
2022-10-03T23:12:50.164Z,992.116
2022-10-03T23:14:50.049Z,992.106
2022-10-03T23:16:50.199Z,992.128
2022-10-03T23:18:50.359Z,992.170
2022-10-03T23:20:50.209Z,992.157
2022-10-03T23:22:50.051Z,992.166
2022-10-03T23:24:49.990Z,992.134
2022-10-03T23:26:50.331Z,992.158
2022-10-03T23:28:50.330Z,992.221
2022-10-03T23:30:50.543Z,992.224
2022-10-03T23:32:49.904Z,992.260
2022-10-03T23:34:50.490Z,992.249
2022-10-03T23:36:49.967Z,992.290
2022-10-03T23:38:49.948Z,992.316
2022-10-03T23:40:49.948Z,992.339
2022-10-03T23:42:50.023Z,992.383
2022-10-03T23:44:50.026Z,992.393
2022-10-03T23:46:50.407Z,992.376
2022-10-03T23:48:50.460Z,992.322
2022-10-03T23:50:50.426Z,992.270
2022-10-03T23:52:50.467Z,992.245
2022-10-03T23:54:50.538Z,992.237
2022-10-03T23:56:50.713Z,992.240
2022-10-03T23:58:50.772Z,992.250
